BEM weather

Beni Mellal Airport
Beni Mellal, Beni Mellal Province, Morocco

Public forecast

Using degrees Celsius for public forecast. Weather courtesy of forecast.io.

METAR (pilot weather report)

Closest report is Mohammed V International Airport, 86.5 nm (160.3 km) NW. Retrieved 2019/04/22 20:30 UTC (0 seconds ago):

GMMN 222030Z 27006KT 250V310 9999 BKN016 16/14 Q1008 NOSIG

TAF (pilot weather forecast)

Forecast is more than 12 hours old.

Retrieved 2016/10/21 18:00 UTC (3 years ago):

TAF GMMD 211700Z 2118/2224 22007KT CAVOK TEMPO 2122/2124 VRB02KT CAVOK